Time;durP1;ratioP1;P1;durP2;ratioP2;P2;SDS_P1;SDS_P2;PMS_P1;PMS_P2;Temp;Humidity;BMP_temperature;BMP_pressure;BME280_temperature;BME280_humidity;BME280_pressure;Samples;Min_cycle;Max_cycle;Signal;HPM_P1;HPM_P2
2022/06/29 00:02:06;;;;;;;1.70;1.60;;;22.50;41.80;;;;;;4888929;29;21031;-58
2022/06/29 00:04:35;;;;;;;1.70;1.60;;;22.50;41.80;;;;;;4887267;29;20498;-61
2022/06/29 00:07:04;;;;;;;1.30;1.20;;;22.50;41.70;;;;;;4887522;29;20460;-65
2022/06/29 00:09:30;;;;;;;1.57;1.47;;;22.50;41.80;;;;;;4886972;29;20442;-61
2022/06/29 00:11:55;;;;;;;1.63;1.53;;;22.50;41.60;;;;;;4888974;29;20439;-58
2022/06/29 00:14:23;;;;;;;1.53;1.43;;;22.50;41.70;;;;;;4890722;29;20203;-58
2022/06/29 00:16:49;;;;;;;1.33;1.23;;;22.50;41.60;;;;;;4886009;29;21184;-61
2022/06/29 00:19:15;;;;;;;1.50;1.40;;;22.50;41.60;;;;;;4892362;29;20900;-62
2022/06/29 00:21:42;;;;;;;1.50;1.40;;;22.50;41.70;;;;;;4896347;29;20203;-58
2022/06/29 00:24:10;;;;;;;1.70;1.60;;;22.50;41.60;;;;;;4892719;29;20511;-59
2022/06/29 00:26:36;;;;;;;1.50;1.40;;;22.50;41.50;;;;;;4893998;29;20469;-58
2022/06/29 00:29:03;;;;;;;1.50;1.40;;;22.50;41.60;;;;;;4893676;29;21149;-59
2022/06/29 00:31:31;;;;;;;1.60;1.50;;;22.50;41.50;;;;;;4894134;29;20445;-58
2022/06/29 00:33:58;;;;;;;1.70;1.50;;;22.50;41.60;;;;;;4894362;29;20471;-58
2022/06/29 00:36:24;;;;;;;1.40;1.30;;;22.50;41.60;;;;;;4893153;29;20470;-58
2022/06/29 00:38:50;;;;;;;1.67;1.57;;;22.50;41.50;;;;;;4893682;29;20497;-57
2022/06/29 00:41:18;;;;;;;1.97;1.50;;;22.50;41.60;;;;;;4893540;29;20555;-62
2022/06/29 00:43:44;;;;;;;1.60;1.50;;;22.50;41.40;;;;;;4894222;29;20489;-60
2022/06/29 00:46:15;;;;;;;1.60;1.50;;;22.50;41.40;;;;;;4897967;29;20443;-59
2022/06/29 00:48:43;;;;;;;1.70;1.60;;;22.50;41.50;;;;;;4895041;29;20425;-58
2022/06/29 00:51:12;;;;;;;1.60;1.50;;;22.50;41.50;;;;;;4895401;29;20457;-59
2022/06/29 00:53:40;;;;;;;2.10;1.80;;;22.50;41.50;;;;;;4893235;29;20436;-58
2022/06/29 00:56:10;;;;;;;1.60;1.50;;;22.50;41.50;;;;;;4897825;29;20525;-59
2022/06/29 00:58:40;;;;;;;1.50;1.40;;;22.50;41.70;;;;;;4876323;29;20475;-60
2022/06/29 01:01:09;;;;;;;1.80;1.53;;;22.50;41.70;;;;;;4890109;29;20965;-58
2022/06/29 01:03:34;;;;;;;1.80;1.70;;;22.50;41.70;;;;;;4894053;29;20473;-60
2022/06/29 01:06:01;;;;;;;1.73;1.63;;;22.50;42.40;;;;;;4889570;29;20443;-58
2022/06/29 01:08:27;;;;;;;1.73;1.50;;;22.50;41.70;;;;;;4891988;29;20240;-57
2022/06/29 01:10:55;;;;;;;1.53;1.43;;;22.50;41.60;;;;;;4890950;29;20935;-58
2022/06/29 01:13:25;;;;;;;1.60;1.50;;;22.50;41.50;;;;;;4892833;29;20223;-59
2022/06/29 01:15:50;;;;;;;2.00;1.90;;;22.50;41.50;;;;;;4888605;29;20457;-59
2022/06/29 01:18:17;;;;;;;1.60;1.50;;;22.50;41.50;;;;;;4894257;29;20446;-64
2022/06/29 01:20:44;;;;;;;1.60;1.50;;;22.50;41.50;;;;;;4891217;29;20193;-59
2022/06/29 01:23:10;;;;;;;1.77;1.43;;;22.50;41.50;;;;;;4896199;29;20495;-58
2022/06/29 01:25:36;;;;;;;1.70;1.60;;;22.50;41.50;;;;;;4890549;29;20961;-60
2022/06/29 01:28:02;;;;;;;1.87;1.77;;;22.50;41.50;;;;;;4893128;29;20433;-57
2022/06/29 01:30:29;;;;;;;1.60;1.50;;;22.50;41.40;;;;;;4895041;29;20817;-60
2022/06/29 01:32:55;;;;;;;2.30;2.13;;;22.50;41.30;;;;;;4890545;29;20203;-58
2022/06/29 01:35:23;;;;;;;1.97;1.77;;;22.50;41.30;;;;;;4892699;29;20435;-59
2022/06/29 01:37:49;;;;;;;2.13;1.60;;;22.50;41.40;;;;;;4896383;29;20214;-58
2022/06/29 01:40:18;;;;;;;1.90;1.80;;;22.50;41.40;;;;;;4892529;29;20439;-59
2022/06/29 01:42:44;;;;;;;1.70;1.60;;;22.50;41.40;;;;;;4894484;29;20426;-60
2022/06/29 01:45:10;;;;;;;1.60;1.50;;;22.60;41.50;;;;;;4898938;29;20437;-60
2022/06/29 01:47:37;;;;;;;1.67;1.57;;;22.50;41.40;;;;;;4894306;29;20290;-61
2022/06/29 01:50:03;;;;;;;1.77;1.67;;;22.50;41.40;;;;;;4887628;29;20952;-62
2022/06/29 01:52:29;;;;;;;1.70;1.60;;;22.50;41.30;;;;;;4892069;29;20443;-62
2022/06/29 01:54:55;;;;;;;1.90;1.47;;;22.50;41.30;;;;;;4895074;29;20445;-57
2022/06/29 01:57:21;;;;;;;1.70;1.60;;;22.50;41.30;;;;;;4889809;29;20467;-58
2022/06/29 01:59:47;;;;;;;1.97;1.87;;;22.50;41.30;;;;;;4890374;29;20561;-58
2022/06/29 02:02:14;;;;;;;1.70;1.60;;;22.50;41.40;;;;;;4886912;29;20447;-58
2022/06/29 02:04:41;;;;;;;1.80;1.70;;;22.50;41.30;;;;;;4889808;29;20484;-59
2022/06/29 02:07:07;;;;;;;1.60;1.50;;;22.50;41.30;;;;;;4890275;29;20522;-60
2022/06/29 02:09:33;;;;;;;1.70;1.60;;;22.50;41.30;;;;;;4889841;29;20442;-64
2022/06/29 02:12:00;;;;;;;1.93;1.80;;;22.50;41.40;;;;;;4887454;29;20447;-67
2022/06/29 02:14:26;;;;;;;3.30;1.60;;;22.50;41.40;;;;;;4890944;29;20192;-58
2022/06/29 02:16:53;;;;;;;1.97;1.77;;;22.50;41.40;;;;;;4887756;29;20555;-58
2022/06/29 02:19:18;;;;;;;1.70;1.60;;;22.50;41.40;;;;;;4888057;29;20865;-60
2022/06/29 02:21:45;;;;;;;1.93;1.83;;;22.50;41.40;;;;;;4891690;29;20530;-58
2022/06/29 02:24:13;;;;;;;1.80;1.70;;;22.50;41.40;;;;;;4891104;29;20215;-59
2022/06/29 02:26:40;;;;;;;1.60;1.50;;;22.50;41.50;;;;;;4888917;29;20446;-59
2022/06/29 02:29:05;;;;;;;1.80;1.70;;;22.50;41.40;;;;;;4890789;29;20450;-57
2022/06/29 02:36:59;;;;;;;2.03;1.90;;;22.50;41.40;;;;;;4888656;29;20449;-62
2022/06/29 02:39:24;;;;;;;1.67;1.57;;;22.50;42.10;;;;;;4887798;29;20522;-58
2022/06/29 02:41:50;;;;;;;2.10;1.90;;;22.50;41.50;;;;;;4885109;29;20216;-61
2022/06/29 02:44:17;;;;;;;1.87;1.77;;;22.50;41.40;;;;;;4889299;29;20306;-61
2022/06/29 02:46:43;;;;;;;1.70;1.60;;;22.50;41.40;;;;;;4889470;29;20260;-58
2022/06/29 02:49:09;;;;;;;1.70;1.60;;;22.50;41.30;;;;;;4889260;29;20446;-62
2022/06/29 02:51:35;;;;;;;1.63;1.53;;;22.50;41.40;;;;;;4886066;29;20181;-58
2022/06/29 02:54:03;;;;;;;1.80;1.70;;;22.50;41.40;;;;;;4890206;29;20442;-59
2022/06/29 02:56:31;;;;;;;2.10;2.00;;;22.50;41.40;;;;;;4886853;29;20450;-58
2022/06/29 02:58:56;;;;;;;1.90;1.70;;;22.50;41.40;;;;;;4891070;29;20497;-62
2022/06/29 03:01:24;;;;;;;1.70;1.60;;;22.50;41.40;;;;;;4889361;29;20467;-60
2022/06/29 03:03:50;;;;;;;1.67;1.57;;;22.50;41.40;;;;;;4896141;29;20278;-57
2022/06/29 03:06:17;;;;;;;1.70;1.60;;;22.50;41.30;;;;;;4886613;29;20903;-63
2022/06/29 03:08:43;;;;;;;1.70;1.60;;;22.50;41.40;;;;;;4891479;29;20226;-64
2022/06/29 03:11:11;;;;;;;1.50;1.40;;;22.50;41.40;;;;;;4888728;29;20529;-61
2022/06/29 03:13:37;;;;;;;1.73;1.63;;;22.50;41.50;;;;;;4895992;29;20196;-66
2022/06/29 03:16:03;;;;;;;2.10;2.00;;;22.50;41.40;;;;;;4891036;29;20454;-59
2022/06/29 03:18:29;;;;;;;1.87;1.77;;;22.50;41.30;;;;;;4885515;29;20534;-57
2022/06/29 03:20:55;;;;;;;2.23;1.90;;;22.50;41.30;;;;;;4891958;29;20857;-57
2022/06/29 03:23:24;;;;;;;1.90;1.80;;;22.50;41.40;;;;;;4893679;29;20475;-61
2022/06/29 03:25:50;;;;;;;1.87;1.77;;;22.50;41.40;;;;;;4894402;29;20254;-58
2022/06/29 03:28:17;;;;;;;2.00;1.90;;;22.50;41.40;;;;;;4891683;29;20451;-60
2022/06/29 03:30:42;;;;;;;2.70;1.73;;;22.50;41.30;;;;;;4892901;29;20267;-57
2022/06/29 03:33:09;;;;;;;1.70;1.60;;;22.50;41.40;;;;;;4887358;29;20582;-58
2022/06/29 03:35:35;;;;;;;1.97;1.80;;;22.50;41.40;;;;;;4893267;29;20821;-63
2022/06/29 03:38:01;;;;;;;1.80;1.70;;;22.50;41.40;;;;;;4898192;29;20607;-58
2022/06/29 03:40:27;;;;;;;1.80;1.70;;;22.50;41.40;;;;;;4897133;29;20749;-58
2022/06/29 03:42:54;;;;;;;1.70;1.60;;;22.50;41.40;;;;;;4894688;29;20180;-60
2022/06/29 03:45:20;;;;;;;1.87;1.67;;;22.50;41.40;;;;;;4889072;29;20249;-58
2022/06/29 03:47:48;;;;;;;1.97;1.87;;;22.50;41.40;;;;;;4887368;29;20997;-57
2022/06/29 03:50:14;;;;;;;2.03;1.93;;;22.50;41.30;;;;;;4892506;29;20184;-60
2022/06/29 03:52:40;;;;;;;1.70;1.60;;;22.50;41.30;;;;;;4885840;29;20466;-60
2022/06/29 03:55:06;;;;;;;1.70;1.60;;;22.50;41.40;;;;;;4890602;29;20200;-59
2022/06/29 03:57:33;;;;;;;1.77;1.67;;;22.50;41.40;;;;;;4892636;29;20196;-59
2022/06/29 03:59:58;;;;;;;1.70;1.60;;;22.50;41.40;;;;;;4887865;29;20482;-58
2022/06/29 04:02:25;;;;;;;1.73;1.63;;;22.50;41.40;;;;;;4882495;29;20791;-62
2022/06/29 04:04:52;;;;;;;2.00;1.90;;;22.50;42.10;;;;;;4891768;29;20722;-59
2022/06/29 04:07:18;;;;;;;1.80;1.70;;;22.50;41.40;;;;;;4889830;29;20439;-60
2022/06/29 04:09:47;;;;;;;2.00;1.90;;;22.50;41.30;;;;;;4890586;29;20450;-59
2022/06/29 04:12:14;;;;;;;1.90;1.80;;;22.50;41.30;;;;;;4886912;29;20692;-65
2022/06/29 04:14:42;;;;;;;1.60;1.50;;;22.50;41.40;;;;;;4891471;29;20461;-60
2022/06/29 04:17:07;;;;;;;2.73;1.83;;;22.50;41.30;;;;;;4889496;29;20442;-59
2022/06/29 04:19:35;;;;;;;1.53;1.43;;;22.50;41.30;;;;;;4891036;29;20434;-57
2022/06/29 04:22:01;;;;;;;2.00;1.90;;;22.50;41.30;;;;;;4884738;29;20439;-58
2022/06/29 04:24:27;;;;;;;1.70;1.60;;;22.50;41.50;;;;;;4884336;29;20545;-61
2022/06/29 04:26:54;;;;;;;2.00;1.90;;;22.50;41.40;;;;;;4889924;29;21139;-57
2022/06/29 04:29:20;;;;;;;1.90;1.80;;;22.50;41.40;;;;;;4888552;29;20184;-58
2022/06/29 04:31:51;;;;;;;2.30;1.70;;;22.50;41.40;;;;;;4887299;29;20941;-59
2022/06/29 04:34:17;;;;;;;2.13;2.03;;;22.50;41.30;;;;;;4887773;29;20443;-58
2022/06/29 04:36:43;;;;;;;2.27;2.17;;;22.50;41.40;;;;;;4878362;29;20435;-59
2022/06/29 04:39:09;;;;;;;2.10;1.90;;;22.50;41.40;;;;;;4885827;29;20450;-61
2022/06/29 04:41:37;;;;;;;1.70;1.60;;;22.50;41.40;;;;;;4888179;29;20187;-59
2022/06/29 04:44:03;;;;;;;1.60;1.50;;;22.50;41.30;;;;;;4890418;29;20212;-59
2022/06/29 04:46:29;;;;;;;1.87;1.57;;;22.50;41.60;;;;;;4886998;29;20458;-59
2022/06/29 04:49:00;;;;;;;2.13;1.93;;;22.50;41.90;;;;;;4891511;29;20191;-58
2022/06/29 04:51:30;;;;;;;1.83;1.73;;;22.50;42.00;;;;;;4886125;29;20177;-59
2022/06/29 04:57:20;;;;;;;2.07;1.83;;;22.50;42.20;;;;;;4874788;29;20523;-67
2022/06/29 04:59:45;;;;;;;1.80;1.70;;;22.50;42.60;;;;;;4879356;29;20971;-59
2022/06/29 05:04:48;;;;;;;1.90;1.80;;;22.50;42.30;;;;;;4564361;23;20281;-63
2022/06/29 05:07:14;;;;;;;2.30;2.20;;;22.50;42.20;;;;;;4910546;29;20441;-58
2022/06/29 05:09:39;;;;;;;7.43;2.20;;;22.50;42.10;;;;;;4907209;29;21359;-59
2022/06/29 05:12:07;;;;;;;1.60;1.50;;;22.50;42.10;;;;;;4911246;29;20234;-57
2022/06/29 05:14:33;;;;;;;1.90;1.80;;;22.50;42.20;;;;;;4913594;29;20738;-56
2022/06/29 05:16:59;;;;;;;2.13;2.00;;;22.50;42.30;;;;;;4915834;29;20449;-57
2022/06/29 05:19:24;;;;;;;2.70;2.07;;;22.50;42.40;;;;;;4910617;29;20784;-58
2022/06/29 05:21:50;;;;;;;1.93;1.83;;;22.50;42.50;;;;;;4908425;29;20660;-56
2022/06/29 05:24:16;;;;;;;1.70;1.60;;;22.50;42.60;;;;;;4906261;29;20263;-58
2022/06/29 05:26:42;;;;;;;1.93;1.83;;;22.50;42.70;;;;;;4909200;29;20206;-58
2022/06/29 05:29:07;;;;;;;1.80;1.70;;;22.50;42.80;;;;;;4911137;29;20191;-62
2022/06/29 05:31:33;;;;;;;2.53;2.00;;;22.50;42.90;;;;;;4908261;29;20191;-59
2022/06/29 05:34:00;;;;;;;1.60;1.50;;;22.50;43.00;;;;;;4917811;29;20195;-58
2022/06/29 05:36:25;;;;;;;1.80;1.70;;;22.50;43.10;;;;;;4913326;29;20693;-58
2022/06/29 05:38:51;;;;;;;1.63;1.53;;;22.50;43.20;;;;;;4897918;29;20434;-58
2022/06/29 05:41:17;;;;;;;1.70;1.60;;;22.50;43.30;;;;;;4915149;29;20214;-58
2022/06/29 05:43:49;;;;;;;1.80;1.70;;;22.50;43.50;;;;;;4914808;29;20262;-57
2022/06/29 05:46:18;;;;;;;1.73;1.63;;;22.50;43.60;;;;;;4910254;29;20572;-58
2022/06/29 05:48:43;;;;;;;1.70;1.60;;;22.50;43.70;;;;;;4913706;29;20430;-59
2022/06/29 05:51:09;;;;;;;1.60;1.50;;;22.50;43.80;;;;;;4914276;29;20445;-58
2022/06/29 05:53:35;;;;;;;1.50;1.40;;;22.50;43.90;;;;;;4913659;29;20602;-58
2022/06/29 05:56:01;;;;;;;2.00;1.80;;;22.50;44.00;;;;;;4910521;29;20252;-58
2022/06/29 05:58:26;;;;;;;1.93;1.83;;;22.50;44.10;;;;;;4911309;29;20883;-60
2022/06/29 06:00:52;;;;;;;2.07;1.97;;;22.50;44.10;;;;;;4909844;29;20474;-58
2022/06/29 06:03:18;;;;;;;2.17;2.00;;;22.50;44.20;;;;;;4914101;29;20270;-57
2022/06/29 06:05:44;;;;;;;1.83;1.73;;;22.50;44.30;;;;;;4911653;29;20227;-59
2022/06/29 06:08:11;;;;;;;1.90;1.80;;;22.50;44.30;;;;;;4915843;29;20488;-58
2022/06/29 06:10:37;;;;;;;2.10;2.00;;;22.50;44.30;;;;;;4914987;29;20211;-57
2022/06/29 06:13:05;;;;;;;1.50;1.40;;;22.50;44.30;;;;;;4911363;29;20788;-57
2022/06/29 06:15:32;;;;;;;1.80;1.70;;;22.50;44.40;;;;;;4908079;29;20194;-58
2022/06/29 06:17:58;;;;;;;1.73;1.63;;;22.50;44.50;;;;;;4913165;29;20467;-56
2022/06/29 06:20:23;;;;;;;2.13;1.80;;;22.50;44.50;;;;;;4908816;29;20473;-56
2022/06/29 06:22:49;;;;;;;2.10;2.00;;;22.50;44.30;;;;;;4897937;29;20199;-58
2022/06/29 06:25:15;;;;;;;1.90;1.80;;;22.50;44.30;;;;;;4908544;29;20195;-58
2022/06/29 06:27:41;;;;;;;1.80;1.70;;;22.50;44.20;;;;;;4912734;29;20191;-58
2022/06/29 06:30:07;;;;;;;1.73;1.63;;;22.50;44.90;;;;;;4909697;29;20956;-57
2022/06/29 06:32:33;;;;;;;2.03;1.93;;;22.50;44.10;;;;;;4907785;29;20786;-56
2022/06/29 06:34:58;;;;;;;1.80;1.70;;;22.50;43.90;;;;;;4910585;29;20527;-56
2022/06/29 06:37:24;;;;;;;1.60;1.50;;;22.50;43.90;;;;;;4909273;29;20191;-56
2022/06/29 06:42:34;;;;;;;1.73;1.63;;;22.50;43.90;;;;;;4906985;29;20246;-56
2022/06/29 06:45:00;;;;;;;2.07;1.97;;;22.50;43.90;;;;;;4908520;29;20473;-59
2022/06/29 06:47:25;;;;;;;3.73;2.10;;;22.50;43.90;;;;;;4906492;29;20206;-58
2022/06/29 06:49:51;;;;;;;3.47;1.60;;;22.50;43.90;;;;;;4908659;29;20187;-58
2022/06/29 06:52:17;;;;;;;1.80;1.70;;;22.50;43.90;;;;;;4890231;29;21284;-58
2022/06/29 06:54:44;;;;;;;1.70;1.60;;;22.50;44.00;;;;;;4912690;29;20521;-56
2022/06/29 06:57:11;;;;;;;2.10;2.00;;;22.50;44.00;;;;;;4909272;29;20237;-56
2022/06/29 06:59:38;;;;;;;1.97;1.87;;;22.50;44.80;;;;;;4909190;29;20452;-57
2022/06/29 07:02:03;;;;;;;2.13;1.93;;;22.50;44.00;;;;;;4909026;29;20538;-57
2022/06/29 07:04:29;;;;;;;2.07;1.97;;;22.50;43.90;;;;;;4905735;29;20510;-58
2022/06/29 07:06:55;;;;;;;1.80;1.70;;;22.50;43.90;;;;;;4907341;29;20183;-56
2022/06/29 07:09:21;;;;;;;2.07;1.97;;;22.50;43.90;;;;;;4905524;29;20568;-56
2022/06/29 07:11:46;;;;;;;1.63;1.53;;;22.50;43.80;;;;;;4910613;29;20209;-58
2022/06/29 07:14:12;;;;;;;1.87;1.77;;;22.50;43.80;;;;;;4907092;29;20195;-59
2022/06/29 07:16:38;;;;;;;1.97;1.87;;;22.50;43.70;;;;;;4910213;29;20710;-57
2022/06/29 07:19:04;;;;;;;2.47;1.83;;;22.50;43.60;;;;;;4908814;29;20255;-57
2022/06/29 07:21:30;;;;;;;1.80;1.70;;;22.50;43.60;;;;;;4905327;29;20219;-56
2022/06/29 07:23:58;;;;;;;1.80;1.70;;;22.50;43.70;;;;;;4903246;29;20219;-58
2022/06/29 07:26:26;;;;;;;1.80;1.70;;;22.50;43.70;;;;;;4902877;29;20187;-62
2022/06/29 07:28:52;;;;;;;1.90;1.80;;;22.50;43.80;;;;;;4909402;29;20543;-56
2022/06/29 07:31:18;;;;;;;1.73;1.63;;;22.50;43.90;;;;;;4909397;29;20928;-58
2022/06/29 07:33:44;;;;;;;1.80;1.60;;;22.50;44.00;;;;;;4908836;29;20445;-57
2022/06/29 07:36:10;;;;;;;1.50;1.40;;;22.50;44.10;;;;;;4912445;29;20433;-57
2022/06/29 07:38:36;;;;;;;1.90;1.80;;;22.50;44.20;;;;;;4912890;29;20199;-62
2022/06/29 07:41:05;;;;;;;1.50;1.40;;;22.50;44.30;;;;;;4909922;29;20811;-57
2022/06/29 07:43:31;;;;;;;2.00;1.90;;;22.50;44.30;;;;;;4909987;29;20211;-58
2022/06/29 07:45:57;;;;;;;1.80;1.70;;;22.50;44.30;;;;;;4906772;29;20448;-56
2022/06/29 07:48:25;;;;;;;1.70;1.60;;;22.50;44.50;;;;;;4909969;29;20223;-56
2022/06/29 07:50:51;;;;;;;1.73;1.63;;;22.50;44.50;;;;;;4910605;29;20431;-64
2022/06/29 07:53:17;;;;;;;1.90;1.80;;;22.50;44.50;;;;;;4910438;29;20434;-60
2022/06/29 07:55:44;;;;;;;2.00;1.90;;;22.40;44.50;;;;;;4912480;29;21058;-58
2022/06/29 07:58:14;;;;;;;1.70;1.60;;;22.50;44.60;;;;;;4912512;29;20226;-59
2022/06/29 08:00:41;;;;;;;1.73;1.63;;;22.50;44.70;;;;;;4903362;29;20461;-58
2022/06/29 08:03:07;;;;;;;1.90;1.80;;;22.50;44.70;;;;;;4906183;29;20507;-58
2022/06/29 08:05:35;;;;;;;1.67;1.57;;;22.50;44.70;;;;;;4908599;29;20505;-58
2022/06/29 08:08:01;;;;;;;1.93;1.83;;;22.50;44.80;;;;;;4905449;29;20187;-58
2022/06/29 08:10:28;;;;;;;1.97;1.87;;;22.50;44.80;;;;;;4904885;29;20439;-60
2022/06/29 08:12:55;;;;;;;3.20;1.93;;;22.50;44.80;;;;;;4907825;29;20442;-57
2022/06/29 08:15:22;;;;;;;1.80;1.70;;;22.50;44.80;;;;;;4895851;29;20434;-59
2022/06/29 08:17:52;;;;;;;1.70;1.60;;;22.50;44.70;;;;;;4906211;29;21039;-57
2022/06/29 08:20:19;;;;;;;1.80;1.70;;;22.50;44.50;;;;;;4907344;29;20446;-60
2022/06/29 08:22:46;;;;;;;1.80;1.70;;;22.50;44.30;;;;;;4909326;29;20430;-59
2022/06/29 08:25:12;;;;;;;1.67;1.57;;;22.50;44.20;;;;;;4911066;29;20473;-58
2022/06/29 08:27:39;;;;;;;34.70;2.50;;;22.50;44.10;;;;;;4891491;29;20846;-57
2022/06/29 08:30:06;;;;;;;1.97;1.50;;;22.50;44.10;;;;;;4909915;29;20445;-59
2022/06/29 08:32:32;;;;;;;1.80;1.70;;;22.50;44.10;;;;;;4905333;29;20442;-58
2022/06/29 08:35:01;;;;;;;1.77;1.67;;;22.50;44.20;;;;;;4909444;29;20466;-58
2022/06/29 08:37:29;;;;;;;1.87;1.77;;;22.50;44.30;;;;;;4910585;29;20202;-58
2022/06/29 08:39:57;;;;;;;1.70;1.60;;;22.50;44.30;;;;;;4911911;29;20433;-57
2022/06/29 08:42:25;;;;;;;1.73;1.63;;;22.50;44.40;;;;;;4913995;29;20442;-59
2022/06/29 08:44:52;;;;;;;1.60;1.50;;;22.50;44.60;;;;;;4912220;29;20598;-59
2022/06/29 08:47:18;;;;;;;1.63;1.53;;;22.50;44.60;;;;;;4906372;29;20540;-57
2022/06/29 08:49:44;;;;;;;2.07;1.97;;;22.50;44.60;;;;;;4910429;29;20801;-59
2022/06/29 08:52:11;;;;;;;1.80;1.70;;;22.50;44.70;;;;;;4909536;29;20495;-59
2022/06/29 08:57:17;;;;;;;1.80;1.70;;;22.40;44.60;;;;;;4913342;29;20457;-58
2022/06/29 08:59:44;;;;;;;1.70;1.60;;;22.50;44.80;;;;;;4909561;29;20444;-59
2022/06/29 09:02:13;;;;;;;1.80;1.70;;;22.50;44.80;;;;;;4912044;29;20433;-59
2022/06/29 09:04:39;;;;;;;1.90;1.80;;;22.50;44.90;;;;;;4913643;29;20473;-56
2022/06/29 09:07:04;;;;;;;1.63;1.53;;;22.50;45.00;;;;;;4916480;29;20445;-57
2022/06/29 09:09:30;;;;;;;1.70;1.60;;;22.50;45.00;;;;;;4911780;29;20999;-58
2022/06/29 09:11:56;;;;;;;1.70;1.60;;;22.50;45.00;;;;;;4909535;29;20176;-56
2022/06/29 09:14:24;;;;;;;1.97;1.87;;;22.40;45.00;;;;;;4908112;29;20945;-59
2022/06/29 09:17:01;;;;;;;1.67;1.57;;;22.50;45.10;;;;;;4911634;29;20795;-60
2022/06/29 09:19:27;;;;;;;1.67;1.57;;;22.50;45.10;;;;;;4907810;29;20941;-58
2022/06/29 09:21:54;;;;;;;1.80;1.70;;;22.50;45.10;;;;;;4911912;29;20449;-59
2022/06/29 09:24:23;;;;;;;1.60;1.50;;;22.50;45.10;;;;;;4911921;29;20222;-61
2022/06/29 09:26:56;;;;;;;1.67;1.57;;;22.50;45.10;;;;;;4913121;29;20451;-60
2022/06/29 09:29:27;;;;;;;1.60;1.50;;;22.40;45.10;;;;;;4908648;29;20457;-58
2022/06/29 09:32:04;;;;;;;1.87;1.77;;;22.40;45.20;;;;;;4910046;29;20450;-56
2022/06/29 09:34:52;;;;;;;1.70;1.60;;;22.40;45.20;;;;;;4909820;29;20461;-57
2022/06/29 09:37:21;;;;;;;1.80;1.70;;;22.40;45.20;;;;;;4907296;29;20504;-57
2022/06/29 09:39:52;;;;;;;1.70;1.60;;;22.40;45.30;;;;;;4910657;29;20541;-59
2022/06/29 09:42:24;;;;;;;1.70;1.60;;;22.40;45.30;;;;;;4907699;29;20597;-57
2022/06/29 09:44:50;;;;;;;1.70;1.60;;;22.50;45.40;;;;;;4909253;29;20510;-58
2022/06/29 09:47:19;;;;;;;1.73;1.63;;;22.40;45.30;;;;;;4906869;29;20525;-58
2022/06/29 09:50:02;;;;;;;2.07;1.97;;;22.40;45.30;;;;;;4907424;29;20270;-61
2022/06/29 09:52:28;;;;;;;2.07;1.97;;;22.40;45.40;;;;;;4911861;29;20438;-57
2022/06/29 09:54:55;;;;;;;2.03;1.93;;;22.40;45.40;;;;;;4906188;29;20940;-59
2022/06/29 09:57:25;;;;;;;1.97;1.87;;;22.40;45.40;;;;;;4909285;29;20708;-58
2022/06/29 10:02:49;;;;;;;2.10;2.00;;;22.40;45.40;;;;;;4910104;29;20530;-58
2022/06/29 10:05:18;;;;;;;1.90;1.80;;;22.40;45.60;;;;;;4907351;29;21164;-60
2022/06/29 10:07:47;;;;;;;2.00;1.90;;;22.40;45.50;;;;;;4907470;29;21034;-58
2022/06/29 10:10:17;;;;;;;2.07;1.97;;;22.40;45.50;;;;;;4911401;29;20441;-60
2022/06/29 10:15:41;;;;;;;1.80;1.70;;;22.40;45.50;;;;;;4910262;29;20820;-57
2022/06/29 10:18:24;;;;;;;1.77;1.67;;;22.40;45.50;;;;;;4914324;29;20449;-58
2022/06/29 10:20:52;;;;;;;2.03;1.93;;;22.40;45.60;;;;;;4911005;29;20440;-57
2022/06/29 10:23:49;;;;;;;2.90;2.00;;;22.40;45.50;;;;;;4912000;29;20619;-60
2022/06/29 10:26:39;;;;;;;3.43;2.77;;;22.40;45.60;;;;;;4909076;29;20446;-58
2022/06/29 10:29:08;;;;;;;7.23;2.20;;;22.40;46.40;;;;;;4910743;29;20477;-60
2022/06/29 10:32:02;;;;;;;4.47;2.20;;;22.40;45.70;;;;;;4908517;29;20462;-58
2022/06/29 10:34:30;;;;;;;3.67;3.30;;;22.50;45.90;;;;;;4908980;29;20446;-57
2022/06/29 10:36:59;;;;;;;2.33;1.80;;;22.40;45.80;;;;;;4907088;29;20569;-58
2022/06/29 10:39:25;;;;;;;2.40;2.20;;;22.40;46.00;;;;;;4891274;29;20897;-61
2022/06/29 10:45:03;;;;;;;3.77;2.63;;;22.50;46.10;;;;;;4905305;29;20278;-58
2022/06/29 10:47:30;;;;;;;2.43;2.20;;;22.50;46.10;;;;;;4909717;29;20437;-57
2022/06/29 10:50:21;;;;;;;2.27;1.83;;;22.50;46.20;;;;;;4907945;29;20438;-58
2022/06/29 10:52:48;;;;;;;2.60;2.40;;;22.40;46.10;;;;;;4908172;29;20442;-60
2022/06/29 10:55:15;;;;;;;2.40;2.17;;;22.40;46.20;;;;;;4909475;29;20976;-60
2022/06/29 10:57:43;;;;;;;2.37;2.20;;;22.40;46.30;;;;;;4903333;29;20440;-57
2022/06/29 11:00:30;;;;;;;4.37;2.33;;;22.40;46.20;;;;;;4890369;29;20912;-63
2022/06/29 11:02:56;;;;;;;2.60;2.40;;;22.40;46.30;;;;;;4907138;29;20453;-57
2022/06/29 11:05:23;;;;;;;2.40;2.03;;;22.50;46.40;;;;;;4906117;29;20481;-58
2022/06/29 11:12:01;;;;;;;2.40;2.30;;;22.40;46.60;;;;;;4909504;29;21604;-59
2022/06/29 11:13:32;;;;;;;2.50;2.30;;;22.40;46.70;;;;;;4909079;29;20548;-58
2022/06/29 11:16:01;;;;;;;2.43;2.23;;;22.40;46.70;;;;;;4907375;29;20446;-56
2022/06/29 11:18:29;;;;;;;2.60;2.50;;;22.40;46.70;;;;;;4908685;29;20488;-61
2022/06/29 11:21:04;;;;;;;2.77;2.57;;;22.40;46.70;;;;;;4897477;29;20671;-58
2022/06/29 11:23:35;;;;;;;2.23;2.13;;;22.40;46.70;;;;;;4899113;29;20979;-61
2022/06/29 11:26:03;;;;;;;2.37;2.27;;;22.40;46.80;;;;;;4903519;29;20488;-57
2022/06/29 11:28:30;;;;;;;2.10;2.00;;;22.40;46.70;;;;;;4908042;29;20461;-58
2022/06/29 11:31:07;;;;;;;2.17;2.07;;;22.40;46.70;;;;;;4905966;29;20868;-60
2022/06/29 11:33:36;;;;;;;2.20;2.10;;;22.40;46.80;;;;;;4902741;29;20437;-57
2022/06/29 11:36:09;;;;;;;2.80;2.20;;;22.40;46.80;;;;;;4907897;29;20438;-61
2022/06/29 11:39:03;;;;;;;2.20;2.10;;;22.40;46.70;;;;;;4905298;29;20429;-58
2022/06/29 11:44:27;;;;;;;2.47;2.37;;;22.40;46.70;;;;;;4911652;29;20525;-59
2022/06/29 11:46:55;;;;;;;2.97;2.30;;;22.40;46.70;;;;;;4911927;29;20445;-58
2022/06/29 11:49:33;;;;;;;2.50;2.40;;;22.40;46.70;;;;;;4914491;29;20433;-57
2022/06/29 11:52:03;;;;;;;2.93;2.73;;;22.40;46.80;;;;;;4913649;29;20444;-57
2022/06/29 11:54:35;;;;;;;2.50;2.37;;;22.40;46.70;;;;;;4904944;29;20456;-58
2022/06/29 11:57:03;;;;;;;2.70;2.50;;;22.40;46.70;;;;;;4903497;29;20449;-57
2022/06/29 11:59:32;;;;;;;2.30;2.20;;;22.40;46.80;;;;;;4909134;29;20449;-57
2022/06/29 12:01:59;;;;;;;2.23;2.10;;;22.40;46.70;;;;;;4907603;29;20505;-58
2022/06/29 12:04:30;;;;;;;2.33;2.13;;;22.40;46.80;;;;;;4904053;29;20485;-58
2022/06/29 12:07:04;;;;;;;2.10;2.00;;;22.40;46.70;;;;;;4905194;29;20438;-58
2022/06/29 12:09:30;;;;;;;2.10;2.00;;;22.40;46.70;;;;;;4906245;29;20462;-57
2022/06/29 12:11:57;;;;;;;2.43;2.33;;;22.40;46.70;;;;;;4906181;29;20434;-57
2022/06/29 12:14:23;;;;;;;2.53;2.40;;;22.40;46.70;;;;;;4904489;29;20537;-57
2022/06/29 12:16:50;;;;;;;2.57;2.47;;;22.40;46.80;;;;;;4906577;29;20461;-58
2022/06/29 12:19:15;;;;;;;2.50;2.40;;;22.40;46.80;;;;;;4912730;29;20591;-57
2022/06/29 12:21:41;;;;;;;2.83;2.50;;;22.40;46.80;;;;;;4915868;29;20222;-58
2022/06/29 12:24:07;;;;;;;2.20;2.10;;;22.40;46.80;;;;;;4912133;29;20713;-60
2022/06/29 12:26:33;;;;;;;2.50;2.40;;;22.40;46.80;;;;;;4911720;29;20214;-57
2022/06/29 12:28:58;;;;;;;2.60;2.40;;;22.40;46.80;;;;;;4914070;29;20434;-57
2022/06/29 12:31:24;;;;;;;2.17;2.07;;;22.40;46.80;;;;;;4919086;29;20191;-58
2022/06/29 12:33:50;;;;;;;2.40;2.20;;;22.40;46.70;;;;;;4912074;29;20670;-58
2022/06/29 12:36:15;;;;;;;2.77;2.57;;;22.40;46.70;;;;;;4912316;29;20639;-60
2022/06/29 12:38:41;;;;;;;2.57;2.47;;;22.40;46.70;;;;;;4914031;29;20683;-63
2022/06/29 12:41:07;;;;;;;2.50;2.40;;;22.40;46.80;;;;;;4917874;29;20271;-63
2022/06/29 12:43:34;;;;;;;2.40;2.30;;;22.40;46.80;;;;;;4914446;29;20245;-57
2022/06/29 12:46:01;;;;;;;2.30;2.20;;;22.40;46.70;;;;;;4907115;29;20282;-57
2022/06/29 12:48:27;;;;;;;2.60;2.50;;;22.40;46.70;;;;;;4908155;29;21119;-56
2022/06/29 12:50:53;;;;;;;2.77;2.60;;;22.40;46.70;;;;;;4910236;29;20765;-57
2022/06/29 12:53:19;;;;;;;2.60;2.40;;;22.40;46.80;;;;;;4912266;29;20791;-58
2022/06/29 12:55:45;;;;;;;2.37;2.27;;;22.40;46.70;;;;;;4912181;29;20446;-62
2022/06/29 12:58:11;;;;;;;2.63;2.53;;;22.40;46.70;;;;;;4910387;29;20209;-61
2022/06/29 13:00:37;;;;;;;4.30;2.60;;;22.40;46.70;;;;;;4906589;29;20255;-59
2022/06/29 13:03:03;;;;;;;2.67;2.47;;;22.40;46.80;;;;;;4903422;29;20953;-62
2022/06/29 13:05:29;;;;;;;2.63;2.43;;;22.40;46.80;;;;;;4903911;29;20663;-59
2022/06/29 13:07:54;;;;;;;3.10;2.90;;;22.40;46.80;;;;;;4907637;29;20231;-59
2022/06/29 13:10:20;;;;;;;2.50;2.40;;;22.40;46.80;;;;;;4911279;29;20646;-59
2022/06/29 13:12:46;;;;;;;3.00;2.80;;;22.40;46.70;;;;;;4905690;29;20198;-62
2022/06/29 13:15:12;;;;;;;2.83;2.63;;;22.40;46.80;;;;;;4903447;29;20203;-59
2022/06/29 13:17:38;;;;;;;2.17;2.07;;;22.40;46.80;;;;;;4909767;29;20458;-60
2022/06/29 13:20:08;;;;;;;2.53;2.43;;;22.40;46.80;;;;;;4906796;29;20192;-61
2022/06/29 13:22:34;;;;;;;2.40;2.30;;;22.40;46.70;;;;;;4905904;29;20195;-59